createdAt,value
2022-12-18T00:01:15.622Z,45.93
2022-12-18T00:03:43.387Z,36.08
2022-12-18T00:06:11.330Z,55.25
2022-12-18T00:08:38.954Z,26.23
2022-12-18T00:11:07.223Z,49.15
2022-12-18T00:13:35.327Z,49.73
2022-12-18T00:16:04.483Z,47.45
2022-12-18T00:18:32.017Z,48.30
2022-12-18T00:21:02.806Z,49.55
2022-12-18T00:23:30.665Z,49.53
2022-12-18T00:26:04.705Z,52.47
2022-12-18T00:28:37.889Z,45.67
2022-12-18T00:31:05.952Z,48.30
2022-12-18T00:33:33.080Z,29.83
2022-12-18T00:36:12.553Z,49.45
2022-12-18T00:38:40.253Z,46.37
2022-12-18T00:41:08.326Z,56.55
2022-12-18T00:43:35.697Z,45.90
2022-12-18T00:46:03.010Z,51.15
2022-12-18T00:48:30.299Z,43.25
2022-12-18T00:50:57.466Z,53.10
2022-12-18T00:53:24.693Z,34.33
2022-12-18T00:55:51.806Z,47.35
2022-12-18T00:58:18.889Z,42.70
2022-12-18T01:00:46.200Z,48.13
2022-12-18T01:03:16.474Z,42.33
2022-12-18T01:05:44.005Z,53.35
2022-12-18T01:08:11.086Z,44.20
2022-12-18T01:10:38.170Z,39.67
2022-12-18T01:13:05.325Z,39.13
2022-12-18T01:15:32.397Z,50.97
2022-12-18T01:17:59.484Z,45.08
2022-12-18T01:20:26.609Z,44.83
2022-12-18T01:22:53.730Z,47.70
2022-12-18T01:25:20.954Z,38.53
2022-12-18T01:27:48.167Z,33.03
2022-12-18T01:30:15.912Z,40.53
2022-12-18T01:32:43.155Z,38.40
2022-12-18T01:35:10.602Z,55.90
2022-12-18T01:37:37.986Z,45.60
2022-12-18T01:40:05.753Z,48.60
2022-12-18T01:42:33.047Z,47.10
2022-12-18T01:45:07.972Z,47.25
2022-12-18T01:47:40.387Z,45.88
2022-12-18T01:50:16.499Z,58.20
2022-12-18T01:52:55.307Z,41.57
2022-12-18T01:55:24.007Z,39.75
2022-12-18T01:57:54.006Z,44.25
2022-12-18T02:00:22.834Z,51.75
2022-12-18T02:02:50.274Z,47.22
2022-12-18T02:05:19.606Z,43.50
2022-12-18T02:08:01.870Z,44.28
2022-12-18T02:10:35.141Z,41.45
2022-12-18T02:13:09.478Z,47.95
2022-12-18T02:15:51.761Z,44.33
2022-12-18T02:18:25.622Z,45.53
2022-12-18T02:20:57.402Z,41.10
2022-12-18T02:23:43.104Z,41.20
2022-12-18T02:26:15.021Z,43.35
2022-12-18T02:28:44.390Z,34.67
2022-12-18T02:31:15.147Z,31.37
2022-12-18T02:33:43.911Z,32.55
2022-12-18T02:36:11.816Z,40.97
2022-12-18T02:38:39.162Z,42.30
2022-12-18T02:41:07.359Z,39.15
2022-12-18T02:43:35.328Z,37.93
2022-12-18T02:46:22.623Z,39.95
2022-12-18T02:48:51.785Z,44.83
2022-12-18T02:51:27.264Z,43.38
2022-12-18T02:53:58.363Z,40.97
2022-12-18T02:56:31.856Z,45.77
2022-12-18T02:59:25.996Z,42.70
2022-12-18T03:02:02.068Z,49.15
2022-12-18T03:04:42.309Z,43.90
2022-12-18T03:07:13.274Z,39.53
2022-12-18T03:09:43.244Z,46.93
2022-12-18T03:12:24.991Z,38.65
2022-12-18T03:14:57.650Z,40.80
2022-12-18T03:17:26.825Z,33.55
2022-12-18T03:19:55.172Z,35.42
2022-12-18T03:22:24.035Z,43.43
2022-12-18T03:24:51.558Z,29.30
2022-12-18T03:27:21.316Z,41.25
2022-12-18T03:29:51.000Z,38.58
2022-12-18T03:32:25.201Z,38.13
2022-12-18T03:34:52.660Z,35.87
2022-12-18T03:37:19.762Z,48.55
2022-12-18T03:39:46.844Z,39.17
2022-12-18T03:42:26.125Z,43.17
2022-12-18T03:45:00.233Z,40.22
2022-12-18T03:47:30.615Z,43.00
2022-12-18T03:50:12.509Z,38.58
2022-12-18T03:52:43.649Z,24.27
2022-12-18T03:55:11.455Z,32.50
2022-12-18T03:57:39.014Z,32.25
2022-12-18T04:00:14.767Z,16.73
2022-12-18T04:02:44.893Z,16.20
2022-12-18T04:05:12.500Z,35.65
2022-12-18T04:07:40.141Z,29.50
2022-12-18T04:10:08.686Z,39.00
2022-12-18T04:12:35.736Z,29.97
2022-12-18T04:15:02.788Z,21.00
2022-12-18T04:17:29.840Z,26.65
2022-12-18T04:19:56.927Z,26.50
2022-12-18T04:22:23.984Z,30.17
2022-12-18T04:24:51.020Z,38.70
2022-12-18T04:27:18.454Z,31.70
2022-12-18T04:29:45.777Z,27.63
2022-12-18T04:32:13.112Z,29.45
2022-12-18T04:34:40.242Z,25.20
2022-12-18T04:37:07.525Z,38.67
2022-12-18T04:39:34.808Z,35.58
2022-12-18T04:42:02.245Z,31.20
2022-12-18T04:44:29.624Z,33.65
2022-12-18T04:46:57.142Z,30.70
2022-12-18T04:49:24.556Z,30.93
2022-12-18T04:51:52.584Z,16.95
2022-12-18T04:54:22.843Z,26.67
2022-12-18T04:56:50.774Z,28.38
2022-12-18T04:59:17.862Z,27.98
2022-12-18T05:01:44.981Z,23.37
2022-12-18T05:04:12.255Z,27.38
2022-12-18T05:06:39.406Z,27.65
2022-12-18T05:09:06.582Z,27.17
2022-12-18T05:11:33.725Z,24.13
2022-12-18T05:14:00.953Z,25.33
2022-12-18T05:16:28.164Z,20.05
2022-12-18T05:18:55.529Z,26.23
2022-12-18T05:21:23.007Z,23.20
2022-12-18T05:23:50.329Z,28.05
2022-12-18T05:26:18.860Z,27.53
2022-12-18T05:28:46.924Z,24.00
2022-12-18T05:31:14.421Z,20.95
2022-12-18T05:33:41.862Z,15.50
2022-12-18T05:36:10.063Z,21.08
2022-12-18T05:38:38.076Z,12.13
2022-12-18T05:41:05.317Z,16.45
2022-12-18T05:43:32.501Z,19.20
2022-12-18T05:45:59.662Z,25.45
2022-12-18T05:48:26.810Z,22.67
2022-12-18T05:50:53.949Z,18.77
2022-12-18T05:53:21.785Z,21.17
2022-12-18T05:55:49.013Z,24.77
2022-12-18T05:58:16.776Z,13.90
2022-12-18T06:00:45.231Z,20.95
2022-12-18T06:03:13.417Z,20.63
2022-12-18T06:05:42.181Z,16.92
2022-12-18T06:08:09.327Z,21.33
2022-12-18T06:10:36.427Z,27.70
2022-12-18T06:13:03.722Z,21.98
2022-12-18T06:15:30.788Z,18.83
2022-12-18T06:17:57.856Z,25.40
2022-12-18T06:20:29.091Z,20.45
2022-12-18T06:22:59.660Z,16.35
2022-12-18T06:25:27.261Z,25.05
2022-12-18T06:27:54.880Z,18.33
2022-12-18T06:30:22.374Z,23.60
2022-12-18T06:32:54.619Z,20.73
2022-12-18T06:35:23.718Z,25.80
2022-12-18T06:37:50.929Z,19.98
2022-12-18T06:40:18.292Z,17.23
2022-12-18T06:42:45.336Z,22.55
2022-12-18T06:45:12.617Z,16.88
2022-12-18T06:47:39.838Z,15.80
2022-12-18T06:50:07.204Z,21.23
2022-12-18T06:52:34.667Z,18.03
2022-12-18T06:55:02.564Z,19.30
2022-12-18T06:57:30.327Z,24.00
2022-12-18T06:59:57.861Z,21.17
2022-12-18T07:02:25.519Z,9.60
2022-12-18T07:04:53.036Z,21.87
2022-12-18T07:07:24.348Z,21.13
2022-12-18T07:09:52.227Z,22.90
2022-12-18T07:12:19.920Z,20.88
2022-12-18T07:14:47.341Z,14.32
2022-12-18T07:17:15.320Z,21.33
2022-12-18T07:19:42.689Z,9.43
2022-12-18T07:22:10.159Z,20.48
2022-12-18T07:24:38.531Z,14.13
2022-12-18T07:27:05.685Z,12.63
2022-12-18T07:29:35.057Z,17.13
2022-12-18T07:32:02.248Z,9.45
2022-12-18T07:34:29.379Z,8.20
2022-12-18T07:36:56.527Z,19.08
2022-12-18T07:39:23.623Z,11.27
2022-12-18T07:42:11.207Z,22.17
2022-12-18T07:44:38.611Z,17.50
2022-12-18T07:47:10.495Z,19.80
2022-12-18T07:49:39.147Z,13.13
2022-12-18T07:52:06.313Z,23.50
2022-12-18T07:54:33.437Z,18.80
2022-12-18T07:57:01.327Z,16.77
2022-12-18T07:59:28.549Z,17.23
2022-12-18T08:01:56.339Z,20.17
2022-12-18T08:04:23.673Z,19.08
2022-12-18T08:06:50.948Z,15.93
2022-12-18T08:09:18.579Z,14.88
2022-12-18T08:11:45.922Z,17.98
2022-12-18T08:14:13.215Z,19.15
2022-12-18T08:16:40.708Z,16.90
2022-12-18T08:19:17.705Z,25.00
2022-12-18T08:21:45.261Z,17.98
2022-12-18T08:24:15.774Z,18.38
2022-12-18T08:27:06.673Z,21.92
2022-12-18T08:29:33.334Z,16.88
2022-12-18T08:32:00.813Z,18.77
2022-12-18T08:34:30.777Z,20.48
2022-12-18T08:36:58.201Z,17.27
2022-12-18T08:39:25.601Z,16.23
2022-12-18T08:42:15.198Z,13.27
2022-12-18T08:44:46.919Z,19.60
2022-12-18T08:47:14.037Z,16.25
2022-12-18T08:49:41.567Z,20.15
2022-12-18T08:52:08.866Z,19.42
2022-12-18T08:54:36.092Z,23.55
2022-12-18T08:57:03.342Z,9.33
2022-12-18T08:59:30.638Z,20.55
2022-12-18T09:01:59.002Z,19.00
2022-12-18T09:04:26.272Z,21.25
2022-12-18T09:06:53.497Z,19.60
2022-12-18T09:09:20.745Z,11.83
2022-12-18T09:11:48.234Z,18.52
2022-12-18T09:14:16.877Z,20.35
2022-12-18T09:16:44.103Z,17.30
2022-12-18T09:19:11.462Z,20.50
2022-12-18T09:21:46.123Z,22.20
2022-12-18T09:24:16.198Z,18.55
2022-12-18T09:26:45.240Z,22.50
2022-12-18T09:29:14.532Z,19.08
2022-12-18T09:31:42.252Z,18.60
2022-12-18T09:34:09.490Z,17.87
2022-12-18T09:36:36.763Z,21.67
2022-12-18T09:39:08.085Z,20.58
2022-12-18T09:41:44.981Z,16.73
2022-12-18T09:44:24.147Z,15.27
2022-12-18T09:46:54.409Z,16.40
2022-12-18T09:49:26.707Z,10.60
2022-12-18T09:52:12.774Z,17.45
2022-12-18T09:54:46.204Z,17.63
2022-12-18T09:57:20.209Z,18.90
2022-12-18T09:59:52.476Z,16.50
2022-12-18T10:02:24.841Z,21.52
2022-12-18T10:05:06.193Z,19.08
2022-12-18T10:07:45.570Z,21.25
2022-12-18T10:10:35.653Z,15.10
2022-12-18T10:13:17.684Z,19.03
2022-12-18T10:15:54.051Z,18.58
2022-12-18T10:18:32.285Z,18.42
2022-12-18T10:21:11.657Z,16.60
2022-12-18T10:23:48.507Z,19.00
2022-12-18T10:26:16.450Z,15.23
2022-12-18T10:28:44.709Z,19.58
2022-12-18T10:31:24.543Z,18.50
2022-12-18T10:33:56.257Z,17.50
2022-12-18T10:36:27.520Z,18.45
2022-12-18T10:38:54.799Z,13.40
2022-12-18T10:41:24.069Z,15.68
2022-12-18T10:44:14.277Z,21.95
2022-12-18T10:46:42.142Z,18.20
2022-12-18T10:49:20.207Z,16.13
2022-12-18T10:51:47.789Z,14.47
2022-12-18T10:54:20.011Z,20.45
2022-12-18T10:56:47.442Z,16.15
2022-12-18T10:59:15.955Z,17.75
2022-12-18T11:01:49.231Z,13.57
2022-12-18T11:04:27.106Z,14.73
2022-12-18T11:06:58.224Z,15.70
2022-12-18T11:09:28.164Z,18.08
2022-12-18T11:12:00.118Z,16.48
2022-12-18T11:14:29.181Z,14.65
2022-12-18T11:17:24.242Z,17.57
2022-12-18T11:19:49.145Z,17.02
2022-12-18T11:22:36.107Z,10.70
2022-12-18T11:25:32.378Z,15.23
2022-12-18T11:27:55.194Z,15.57
2022-12-18T11:30:31.115Z,17.80
2022-12-18T11:33:02.317Z,17.15
2022-12-18T11:35:32.699Z,13.07
2022-12-18T11:38:12.654Z,19.20
2022-12-18T11:40:41.905Z,18.60
2022-12-18T11:43:18.629Z,18.47
2022-12-18T11:49:17.170Z,17.00
2022-12-18T11:51:57.964Z,17.52
2022-12-18T11:54:25.138Z,17.13
2022-12-18T11:57:04.681Z,14.50
2022-12-18T11:59:35.257Z,15.07
2022-12-18T12:02:05.649Z,19.55
2022-12-18T12:04:36.251Z,16.85
2022-12-18T12:07:22.060Z,17.40
2022-12-18T12:10:09.547Z,16.13
2022-12-18T12:12:55.999Z,17.17
2022-12-18T12:15:41.966Z,17.27
2022-12-18T12:18:25.615Z,17.17
2022-12-18T12:21:28.384Z,17.55
2022-12-18T12:24:00.200Z,19.23
2022-12-18T12:26:54.383Z,14.20
2022-12-18T12:29:30.205Z,16.70
2022-12-18T12:32:06.376Z,16.38
2022-12-18T12:34:45.351Z,15.00
2022-12-18T12:37:18.167Z,17.63
2022-12-18T12:39:49.174Z,14.82
2022-12-18T12:43:06.531Z,17.65
2022-12-18T12:48:45.864Z,15.38
2022-12-18T12:51:18.978Z,18.03
2022-12-18T12:53:46.846Z,16.90
2022-12-18T12:56:15.677Z,15.93
2022-12-18T12:58:46.199Z,15.90
2022-12-18T13:01:16.186Z,15.77
2022-12-18T13:04:16.253Z,19.40
2022-12-18T13:06:50.465Z,17.90
2022-12-18T13:09:22.087Z,17.38
2022-12-18T13:12:12.072Z,17.05
2022-12-18T13:14:43.037Z,16.90
2022-12-18T13:17:47.371Z,15.53
2022-12-18T13:20:17.252Z,18.25
2022-12-18T13:22:50.046Z,22.42
2022-12-18T13:25:32.863Z,15.20
2022-12-18T13:28:26.769Z,16.17
2022-12-18T13:30:57.035Z,17.27
2022-12-18T13:33:25.548Z,17.77
2022-12-18T13:36:12.082Z,16.45
2022-12-18T13:38:39.957Z,13.45
2022-12-18T13:41:17.335Z,18.77
2022-12-18T13:43:58.873Z,16.43
2022-12-18T13:46:28.918Z,16.48
2022-12-18T13:48:58.361Z,17.52
2022-12-18T13:51:26.380Z,15.13
2022-12-18T13:53:59.836Z,18.55
2022-12-18T13:56:30.942Z,14.03
2022-12-18T13:59:33.554Z,16.42
2022-12-18T14:02:02.525Z,15.63
2022-12-18T14:04:42.918Z,18.48
2022-12-18T14:07:19.836Z,15.35
2022-12-18T14:09:49.851Z,20.07
2022-12-18T14:12:40.781Z,19.85
2022-12-18T14:15:13.228Z,16.00
2022-12-18T14:17:50.121Z,13.52
2022-12-18T14:20:17.333Z,20.25
2022-12-18T14:22:51.414Z,14.00
2022-12-18T14:25:21.907Z,18.17
2022-12-18T14:27:54.065Z,19.55
2022-12-18T14:30:35.788Z,14.90
2022-12-18T14:33:23.049Z,21.35
2022-12-18T14:36:11.323Z,13.80
2022-12-18T14:38:40.111Z,16.05
2022-12-18T14:41:18.218Z,14.02
2022-12-18T14:43:47.006Z,18.83
2022-12-18T14:46:33.969Z,18.15
2022-12-18T14:49:03.121Z,16.83
2022-12-18T14:51:31.800Z,16.67
2022-12-18T14:54:16.008Z,20.10
2022-12-18T14:56:48.016Z,16.08
2022-12-18T14:59:24.541Z,15.38
2022-12-18T15:02:06.142Z,17.37
2022-12-18T15:04:44.562Z,15.32
2022-12-18T15:07:11.869Z,17.33
2022-12-18T15:09:39.553Z,15.45
2022-12-18T15:12:06.953Z,17.85
2022-12-18T15:14:35.883Z,21.33
2022-12-18T15:17:05.450Z,14.65
2022-12-18T15:19:41.319Z,19.48
2022-12-18T15:22:34.486Z,16.90
2022-12-18T15:25:02.230Z,18.30
2022-12-18T15:27:35.946Z,20.23
2022-12-18T15:30:04.788Z,19.70
2022-12-18T15:32:33.305Z,20.00
2022-12-18T15:35:15.253Z,21.38
2022-12-18T15:37:42.563Z,19.77
2022-12-18T15:40:21.177Z,13.00
2022-12-18T15:43:15.207Z,19.73
2022-12-18T15:45:42.397Z,15.45
2022-12-18T15:48:46.623Z,13.85
2022-12-18T15:51:24.538Z,18.50
2022-12-18T15:53:55.809Z,15.17
2022-12-18T15:56:45.137Z,22.20
2022-12-18T15:59:23.703Z,21.90
2022-12-18T16:01:54.313Z,18.50
2022-12-18T16:04:22.638Z,19.50
2022-12-18T16:09:38.172Z,16.05
2022-12-18T16:12:05.612Z,19.75
2022-12-18T16:14:33.297Z,20.02
2022-12-18T16:17:05.217Z,20.85
2022-12-18T16:19:32.780Z,19.83
2022-12-18T16:22:03.206Z,22.83
2022-12-18T16:24:39.465Z,19.45
2022-12-18T16:27:06.586Z,20.00
2022-12-18T16:29:33.976Z,19.95
2022-12-18T16:32:02.243Z,20.53
2022-12-18T16:34:35.264Z,21.25
2022-12-18T16:37:05.904Z,19.42
2022-12-18T16:39:34.930Z,20.08
2022-12-18T16:42:05.332Z,23.65
2022-12-18T16:44:34.713Z,20.87
2022-12-18T16:47:03.935Z,19.15
2022-12-18T16:49:31.437Z,23.55
2022-12-18T16:51:58.925Z,22.02
2022-12-18T16:54:26.447Z,22.42
2022-12-18T16:56:53.673Z,20.47
2022-12-18T16:59:21.144Z,22.55
2022-12-18T17:01:49.342Z,17.30
2022-12-18T17:04:17.898Z,22.92
2022-12-18T17:06:51.742Z,20.10
2022-12-18T17:09:25.914Z,21.57
2022-12-18T17:11:53.605Z,21.55
2022-12-18T17:14:22.021Z,23.73
2022-12-18T17:17:07.414Z,22.42
2022-12-18T17:19:36.565Z,26.98
2022-12-18T17:22:04.872Z,20.80
2022-12-18T17:24:35.192Z,23.38
2022-12-18T17:27:03.178Z,27.15
2022-12-18T17:29:31.150Z,21.15
2022-12-18T17:32:00.340Z,21.70
2022-12-18T17:34:27.880Z,18.97
2022-12-18T17:36:55.507Z,25.42
2022-12-18T17:39:22.602Z,20.98
2022-12-18T17:41:50.169Z,21.13
2022-12-18T17:44:17.431Z,19.02
2022-12-18T17:46:46.235Z,21.43
2022-12-18T17:49:13.909Z,21.98
2022-12-18T17:51:42.715Z,20.15
2022-12-18T17:54:09.954Z,22.23
2022-12-18T17:56:37.100Z,22.67
2022-12-18T17:59:04.821Z,17.60
2022-12-18T18:01:32.226Z,14.63
2022-12-18T18:04:00.647Z,23.92
2022-12-18T18:06:28.223Z,25.25
2022-12-18T18:08:57.539Z,23.83
2022-12-18T18:11:44.325Z,21.67
2022-12-18T18:14:18.709Z,21.27
2022-12-18T18:16:46.956Z,23.17
2022-12-18T18:19:18.561Z,26.80
2022-12-18T18:21:47.063Z,23.20
2022-12-18T18:24:16.611Z,23.30
2022-12-18T18:26:44.220Z,18.05
2022-12-18T18:29:15.862Z,25.20
2022-12-18T18:31:43.463Z,22.23
2022-12-18T18:34:18.202Z,21.00
2022-12-18T18:36:46.238Z,24.50
2022-12-18T18:39:13.881Z,23.30
2022-12-18T18:41:41.051Z,21.60
2022-12-18T18:44:11.460Z,25.35
2022-12-18T18:46:38.602Z,18.77
2022-12-18T18:49:06.218Z,22.07
2022-12-18T18:51:35.292Z,23.35
2022-12-18T18:54:02.854Z,20.33
2022-12-18T18:59:18.634Z,21.63
2022-12-18T19:01:46.096Z,20.47
2022-12-18T19:04:13.491Z,20.73
2022-12-18T19:06:41.470Z,18.55
2022-12-18T19:09:09.026Z,22.40
2022-12-18T19:11:54.956Z,23.00
2022-12-18T19:14:22.329Z,23.13
2022-12-18T19:16:49.727Z,20.98
2022-12-18T19:19:23.014Z,21.98
2022-12-18T19:21:50.366Z,19.13
2022-12-18T19:24:17.630Z,24.25
2022-12-18T19:26:44.834Z,23.88
2022-12-18T19:29:14.632Z,25.92
2022-12-18T19:31:41.881Z,24.00
2022-12-18T19:34:09.508Z,20.85
2022-12-18T19:36:37.953Z,23.20
2022-12-18T19:39:23.513Z,23.60
2022-12-18T19:41:52.567Z,24.65
2022-12-18T19:44:19.963Z,21.25
2022-12-18T19:46:50.466Z,23.90
2022-12-18T19:49:38.476Z,27.20
2022-12-18T19:52:04.959Z,20.10
2022-12-18T19:54:32.471Z,26.90
2022-12-18T19:56:59.874Z,25.33
2022-12-18T19:59:27.378Z,24.08
2022-12-18T20:01:54.913Z,20.13
2022-12-18T20:04:22.807Z,27.23
2022-12-18T20:06:51.607Z,25.05
2022-12-18T20:09:19.374Z,27.15
2022-12-18T20:11:47.898Z,25.27
2022-12-18T20:14:22.311Z,23.33
2022-12-18T20:16:50.782Z,24.50
2022-12-18T20:19:19.450Z,24.88
2022-12-18T20:21:46.925Z,23.58
2022-12-18T20:24:14.177Z,24.42
2022-12-18T20:26:41.412Z,24.73
2022-12-18T20:29:08.810Z,26.83
2022-12-18T20:31:43.833Z,26.75
2022-12-18T20:34:11.131Z,25.25
2022-12-18T20:36:39.879Z,25.33
2022-12-18T20:39:08.976Z,27.77
2022-12-18T20:41:39.131Z,22.67
2022-12-18T20:44:23.219Z,19.70
2022-12-18T20:46:56.307Z,28.92
2022-12-18T20:49:23.763Z,25.33
2022-12-18T20:51:54.708Z,28.52
2022-12-18T20:54:22.772Z,26.87
2022-12-18T20:57:02.304Z,32.78
2022-12-18T20:59:29.756Z,20.92
2022-12-18T21:02:02.891Z,31.27
2022-12-18T21:04:30.900Z,24.08
2022-12-18T21:07:02.569Z,32.10
2022-12-18T21:09:37.622Z,25.80
2022-12-18T21:12:24.961Z,27.83
2022-12-18T21:14:52.621Z,27.25
2022-12-18T21:17:20.130Z,27.10
2022-12-18T21:19:50.205Z,26.50
2022-12-18T21:22:18.416Z,30.70
2022-12-18T21:24:45.873Z,23.05
2022-12-18T21:27:13.736Z,26.63
2022-12-18T21:29:45.239Z,27.95
2022-12-18T21:32:13.999Z,27.90
2022-12-18T21:34:47.468Z,27.15
2022-12-18T21:37:15.131Z,29.77
2022-12-18T21:39:42.607Z,26.48
2022-12-18T21:42:30.345Z,26.23
2022-12-18T21:44:57.905Z,28.53
2022-12-18T21:47:25.255Z,26.10
2022-12-18T21:49:53.234Z,28.92
2022-12-18T21:52:22.184Z,28.63
2022-12-18T21:55:04.784Z,25.33
2022-12-18T21:57:35.871Z,28.13
2022-12-18T22:00:03.029Z,30.25
2022-12-18T22:02:30.600Z,25.98
2022-12-18T22:04:57.856Z,28.63
2022-12-18T22:07:24.968Z,30.17
2022-12-18T22:09:52.085Z,26.60
2022-12-18T22:12:35.447Z,27.13
2022-12-18T22:15:04.460Z,29.30
2022-12-18T22:17:32.080Z,29.60
2022-12-18T22:19:59.490Z,29.00
2022-12-18T22:22:26.841Z,27.20
2022-12-18T22:24:54.204Z,31.38
2022-12-18T22:27:21.395Z,33.63
2022-12-18T22:30:06.957Z,30.77
2022-12-18T22:32:35.220Z,28.20
2022-12-18T22:35:08.008Z,28.47
2022-12-18T22:37:38.042Z,33.28
2022-12-18T22:40:07.388Z,32.47
2022-12-18T22:42:35.066Z,30.75
2022-12-18T22:45:02.494Z,30.05
2022-12-18T22:47:30.836Z,29.67
2022-12-18T22:49:58.849Z,31.45
2022-12-18T22:52:26.303Z,26.15
2022-12-18T22:54:54.368Z,22.55
2022-12-18T22:57:22.341Z,25.15
2022-12-18T22:59:50.120Z,31.73
2022-12-18T23:02:18.660Z,22.95
2022-12-18T23:04:45.983Z,35.92
2022-12-18T23:07:13.238Z,25.75
2022-12-18T23:09:42.454Z,27.77
2022-12-18T23:12:14.828Z,29.75
2022-12-18T23:14:42.719Z,32.38
2022-12-18T23:17:10.171Z,20.85
2022-12-18T23:19:37.498Z,27.08
2022-12-18T23:22:10.088Z,28.77
2022-12-18T23:24:38.764Z,21.60
2022-12-18T23:27:08.608Z,30.88
2022-12-18T23:29:39.607Z,33.58
2022-12-18T23:32:06.998Z,30.45
2022-12-18T23:34:34.452Z,22.77
2022-12-18T23:37:03.776Z,27.50
2022-12-18T23:39:31.418Z,35.15
2022-12-18T23:41:59.562Z,28.02
2022-12-18T23:44:29.809Z,26.38
2022-12-18T23:46:57.190Z,29.60
2022-12-18T23:49:24.656Z,31.60
2022-12-18T23:51:54.888Z,32.40
2022-12-18T23:54:32.877Z,23.83
2022-12-18T23:57:00.734Z,25.80
2022-12-18T23:59:27.857Z,31.73
